Time;durP1;ratioP1;P1;durP2;ratioP2;P2;SDS_P1;SDS_P2;PMS_P1;PMS_P2;Temp;Humidity;BMP_temperature;BMP_pressure;BME280_temperature;BME280_humidity;BME280_pressure;Samples;Min_cycle;Max_cycle;Signal;HPM_P1;HPM_P2
2021/11/24 00:00:06;;;;;;;0.20;0.20;;;;;;;3.49;100.00;101347.91;5061178;28;20455;-48
2021/11/24 00:02:32;;;;;;;0.20;0.10;;;;;;;3.48;100.00;101350.50;5060327;28;20443;-48
2021/11/24 00:05:00;;;;;;;0.30;0.27;;;;;;;3.48;100.00;101345.25;5058158;28;20451;-47
2021/11/24 00:07:27;;;;;;;0.20;0.13;;;;;;;3.52;100.00;101337.44;5048213;28;20893;-48
2021/11/24 00:09:54;;;;;;;0.20;0.20;;;;;;;3.55;100.00;101329.59;5030746;28;20481;-48
2021/11/24 00:12:21;;;;;;;0.20;0.20;;;;;;;3.67;100.00;101334.16;5041627;28;20450;-48
2021/11/24 00:14:47;;;;;;;0.20;0.10;;;;;;;3.70;100.00;101331.63;5041912;28;20502;-48
2021/11/24 00:17:16;;;;;;;0.20;0.10;;;;;;;3.64;100.00;101327.97;5048121;28;20525;-48
2021/11/24 00:19:43;;;;;;;1.17;1.13;;;;;;;3.66;100.00;101336.78;5047767;28;20504;-48
2021/11/24 00:22:10;;;;;;;0.20;0.10;;;;;;;3.71;100.00;101332.50;5041644;28;20454;-48
2021/11/24 00:24:37;;;;;;;0.20;0.20;;;;;;;3.77;100.00;101337.84;5040792;28;20494;-48
2021/11/24 00:27:03;;;;;;;0.20;0.10;;;;;;;3.67;100.00;101335.91;5047634;28;20463;-48
2021/11/24 00:29:30;;;;;;;0.20;0.20;;;;;;;3.69;100.00;101331.56;5047745;28;20447;-48
2021/11/24 00:31:57;;;;;;;0.20;0.20;;;;;;;3.72;100.00;101329.00;5025464;28;20499;-48
2021/11/24 00:34:23;;;;;;;0.20;0.10;;;;;;;3.75;100.00;101331.69;5041700;28;20444;-48
2021/11/24 00:36:50;;;;;;;0.20;0.10;;;;;;;3.71;100.00;101332.50;5047147;28;20476;-47
2021/11/24 00:39:16;;;;;;;0.20;0.10;;;;;;;3.72;100.00;101331.63;5047082;28;20851;-48
2021/11/24 00:41:43;;;;;;;0.20;0.10;;;;;;;3.72;100.00;101327.25;5041790;28;21019;-48
2021/11/24 00:44:10;;;;;;;0.30;0.20;;;;;;;3.77;100.00;101327.31;5040752;28;20526;-48
2021/11/24 00:46:37;;;;;;;0.20;0.10;;;;;;;3.72;100.00;101326.38;5045693;28;20464;-48
2021/11/24 00:49:06;;;;;;;0.20;0.10;;;;;;;3.68;100.00;101328.06;5049262;28;20447;-48
2021/11/24 00:51:32;;;;;;;0.20;0.10;;;;;;;3.58;100.00;101322.66;5045012;28;20457;-47
2021/11/24 00:53:59;;;;;;;0.20;0.10;;;;;;;3.53;100.00;101318.16;5047446;28;20443;-48
2021/11/24 00:56:26;;;;;;;0.20;0.10;;;;;;;3.56;100.00;101314.69;5043100;28;20524;-48
2021/11/24 00:58:53;;;;;;;0.20;0.10;;;;;;;3.61;100.00;101322.69;5039695;28;20447;-48
2021/11/24 01:01:19;;;;;;;0.20;0.20;;;;;;;3.62;100.00;101319.19;5046136;28;20475;-55
2021/11/24 01:03:46;;;;;;;0.20;0.10;;;;;;;3.55;100.00;101324.34;5046926;28;20584;-48
2021/11/24 01:06:13;;;;;;;0.20;0.10;;;;;;;3.65;100.00;101317.50;5043267;28;20528;-48
2021/11/24 01:08:39;;;;;;;0.30;0.20;;;;;;;3.66;100.00;101314.00;5039982;28;20508;-48
2021/11/24 01:11:06;;;;;;;4.43;1.60;;;;;;;3.64;100.00;101320.97;5043962;28;20475;-48
2021/11/24 01:13:33;;;;;;;0.87;0.87;;;;;;;3.64;100.00;101320.09;5046993;28;20482;-47
2021/11/24 01:15:59;;;;;;;0.20;0.10;;;;;;;3.56;100.00;101320.88;5043783;28;20983;-48
2021/11/24 01:18:26;;;;;;;0.20;0.10;;;;;;;3.62;100.00;101322.72;5039795;28;20454;-48
2021/11/24 01:20:53;;;;;;;0.20;0.10;;;;;;;3.62;100.00;101319.19;5043339;28;20452;-48
2021/11/24 01:23:20;;;;;;;0.20;0.20;;;;;;;3.59;100.00;101322.66;5046935;28;20541;-48
2021/11/24 01:25:46;;;;;;;0.30;0.20;;;;;;;3.63;100.00;101315.69;5043647;28;20506;-48
2021/11/24 01:28:13;;;;;;;0.20;0.10;;;;;;;3.61;100.00;101313.06;5039722;28;20447;-48
2021/11/24 01:30:40;;;;;;;0.43;0.43;;;;;;;3.67;100.00;101317.50;5042991;28;20482;-48
2021/11/24 01:33:07;;;;;;;0.20;0.10;;;;;;;3.81;100.00;101316.88;5046560;28;20448;-48
2021/11/24 01:35:34;;;;;;;0.40;0.37;;;;;;;3.60;100.00;101318.28;5046279;28;20459;-48
2021/11/24 01:38:00;;;;;;;0.20;0.10;;;;;;;3.65;100.00;101322.75;5052106;28;20446;-48
2021/11/24 01:40:27;;;;;;;0.60;0.60;;;;;;;3.67;100.00;101313.13;5056417;28;20452;-48
2021/11/24 01:42:54;;;;;;;0.20;0.20;;;;;;;3.78;100.00;101316.81;5043495;28;20814;-48
2021/11/24 01:45:21;;;;;;;0.20;0.20;;;;;;;3.73;100.00;101313.25;5041776;28;20509;-48
2021/11/24 01:47:49;;;;;;;0.20;0.20;;;;;;;3.70;100.00;101305.31;5046429;28;20455;-48
2021/11/24 01:50:19;;;;;;;0.20;0.10;;;;;;;3.71;100.00;101309.72;5044644;28;21002;-48
2021/11/24 01:52:46;;;;;;;0.20;0.20;;;;;;;3.74;100.00;101299.25;5039756;28;20442;-48
2021/11/24 01:55:15;;;;;;;0.20;0.10;;;;;;;3.72;100.00;101300.09;5053240;28;20474;-48
2021/11/24 01:57:48;;;;;;;0.50;0.50;;;;;;;3.86;100.00;101293.28;5046396;28;20467;-48
2021/11/24 02:00:20;;;;;;;0.20;0.10;;;;;;;3.58;100.00;101289.34;5046428;28;20450;-48
2021/11/24 02:02:46;;;;;;;0.20;0.20;;;;;;;3.65;100.00;101290.31;5041599;28;20904;-48
2021/11/24 02:05:14;;;;;;;0.20;0.20;;;;;;;3.66;100.00;101294.72;5039343;28;20495;-48
2021/11/24 02:07:40;;;;;;;0.20;0.20;;;;;;;3.63;100.00;101286.78;5044200;28;20463;-48
2021/11/24 02:10:07;;;;;;;0.20;0.20;;;;;;;3.62;100.00;101283.28;5044326;28;20451;-48
2021/11/24 02:12:34;;;;;;;0.30;0.20;;;;;;;3.53;100.00;101275.22;5036680;28;20451;-48
2021/11/24 02:15:01;;;;;;;0.20;0.10;;;;;;;3.63;100.00;101268.38;5045440;28;20492;-48
2021/11/24 02:17:27;;;;;;;0.20;0.10;;;;;;;3.66;100.00;101271.06;5050284;28;20471;-48
2021/11/24 02:19:54;;;;;;;0.20;0.10;;;;;;;3.70;100.00;101268.50;5034841;28;20451;-48
2021/11/24 02:22:21;;;;;;;0.30;0.20;;;;;;;3.78;100.00;101269.50;5048418;28;20501;-48
2021/11/24 02:24:47;;;;;;;0.20;0.10;;;;;;;3.84;100.00;101268.72;5045835;28;20491;-48
2021/11/24 02:27:14;;;;;;;0.20;0.10;;;;;;;3.96;100.00;101257.47;5049629;28;20588;-48
2021/11/24 02:29:44;;;;;;;0.20;0.10;;;;;;;4.03;100.00;101267.22;5052156;28;20483;-48
2021/11/24 02:32:14;;;;;;;0.20;0.10;;;;;;;3.96;100.00;101257.47;5049181;28;20951;-48
2021/11/24 02:34:40;;;;;;;0.20;0.10;;;;;;;3.99;100.00;101255.78;5045961;28;20560;-48
2021/11/24 02:37:07;;;;;;;0.30;0.30;;;;;;;3.92;100.00;101248.66;5047955;28;20475;-48
2021/11/24 02:39:34;;;;;;;0.20;0.10;;;;;;;3.91;100.00;101253.91;5052372;28;20454;-48
2021/11/24 02:42:01;;;;;;;0.20;0.10;;;;;;;3.94;100.00;101248.69;5050162;28;20476;-48
2021/11/24 02:44:35;;;;;;;0.20;0.10;;;;;;;4.01;100.00;101248.78;5045550;28;20922;-48
2021/11/24 02:47:14;;;;;;;0.20;0.10;;;;;;;4.04;100.00;101243.56;5046591;28;20524;-48
2021/11/24 02:49:44;;;;;;;0.20;0.20;;;;;;;4.05;100.00;101241.81;5034969;28;20476;-48
2021/11/24 02:52:11;;;;;;;0.20;0.20;;;;;;;3.99;100.00;101242.63;5045299;28;20513;-48
2021/11/24 02:54:39;;;;;;;0.50;0.50;;;;;;;4.02;100.00;101240.03;5059061;28;20874;-48
2021/11/24 02:57:08;;;;;;;1.30;1.30;;;;;;;4.01;100.00;101243.53;5045690;28;20467;-48
2021/11/24 02:59:37;;;;;;;0.20;0.10;;;;;;;4.04;100.00;101242.69;5057975;28;20454;-48
2021/11/24 03:02:04;;;;;;;0.20;0.10;;;;;;;4.05;100.00;101240.06;5048311;28;20482;-48
2021/11/24 03:04:32;;;;;;;0.20;0.10;;;;;;;4.03;100.00;101228.66;5049631;28;20930;-48
2021/11/24 03:07:02;;;;;;;13.73;2.40;;;;;;;4.10;100.00;101234.84;5052139;28;20529;-48
2021/11/24 03:09:29;;;;;;;0.20;0.20;;;;;;;4.08;100.00;101221.69;5048861;28;20516;-48
2021/11/24 03:11:56;;;;;;;2.10;2.00;;;;;;;4.07;100.00;101222.56;5028291;28;20448;-48
2021/11/24 03:14:23;;;;;;;0.20;0.20;;;;;;;4.11;100.00;101232.28;5049369;28;20450;-48
2021/11/24 03:16:55;;;;;;;0.20;0.10;;;;;;;4.12;100.00;101220.88;5045687;28;20477;-49
2021/11/24 03:19:21;;;;;;;0.30;0.20;;;;;;;4.14;100.00;101219.16;5047377;28;20470;-49
2021/11/24 03:21:48;;;;;;;0.20;0.10;;;;;;;4.24;100.00;101216.63;5043357;28;20451;-49
2021/11/24 03:24:15;;;;;;;0.20;0.10;;;;;;;4.19;100.00;101213.94;5042673;28;20529;-48
2021/11/24 03:26:41;;;;;;;0.20;0.10;;;;;;;4.17;100.00;101213.03;5048818;28;20471;-48
2021/11/24 03:29:08;;;;;;;0.20;0.20;;;;;;;4.21;100.00;101204.31;5047208;28;20516;-48
2021/11/24 03:31:34;;;;;;;0.20;0.10;;;;;;;4.22;100.00;101206.06;5041638;28;20492;-48
2021/11/24 03:34:01;;;;;;;0.30;0.30;;;;;;;4.15;100.00;101202.50;5043661;28;20531;-48
2021/11/24 03:36:28;;;;;;;0.20;0.20;;;;;;;4.11;100.00;101194.53;5048466;28;20480;-48
2021/11/24 03:38:54;;;;;;;0.20;0.20;;;;;;;4.16;100.00;101185.84;5030193;28;20451;-48
2021/11/24 03:41:21;;;;;;;0.20;0.10;;;;;;;4.13;100.00;101187.56;5036904;28;20497;-49
2021/11/24 03:43:48;;;;;;;0.20;0.20;;;;;;;4.09;100.00;101186.63;5047347;28;20525;-48
2021/11/24 03:46:14;;;;;;;1.50;1.50;;;;;;;4.04;100.00;101182.19;5041933;28;20470;-48
2021/11/24 03:48:41;;;;;;;0.20;0.10;;;;;;;4.03;100.00;101183.94;5043511;28;20448;-48
2021/11/24 03:51:07;;;;;;;0.20;0.20;;;;;;;4.05;100.00;101184.84;5048844;28;20494;-47
2021/11/24 03:53:36;;;;;;;0.50;0.50;;;;;;;4.07;100.00;101177.84;5048142;28;20501;-48
2021/11/24 03:56:02;;;;;;;0.20;0.10;;;;;;;4.05;100.00;101182.19;5053789;28;20464;-49
2021/11/24 03:58:29;;;;;;;0.37;0.37;;;;;;;4.07;100.00;101175.19;5060682;28;20458;-49
2021/11/24 04:00:56;;;;;;;0.20;0.10;;;;;;;4.16;100.00;101179.69;5058985;28;20490;-48
2021/11/24 04:03:22;;;;;;;0.20;0.20;;;;;;;4.10;100.00;101182.25;5047631;28;20537;-48
2021/11/24 04:05:52;;;;;;;0.20;0.10;;;;;;;4.11;100.00;101173.47;5041810;28;20462;-48
2021/11/24 04:08:19;;;;;;;2.00;1.10;;;;;;;4.13;100.00;101172.66;5041916;28;20447;-48
2021/11/24 04:10:46;;;;;;;0.20;0.20;;;;;;;4.07;100.00;101175.19;5028716;28;20446;-48
2021/11/24 04:13:13;;;;;;;0.30;0.20;;;;;;;4.10;100.00;101169.09;5042222;28;21026;-49
2021/11/24 04:15:40;;;;;;;0.20;0.10;;;;;;;3.98;100.00;101175.13;5039776;28;20455;-48
2021/11/24 04:18:07;;;;;;;0.20;0.10;;;;;;;4.05;100.00;101168.16;5055068;28;20932;-48
2021/11/24 04:20:34;;;;;;;0.20;0.10;;;;;;;4.15;100.00;101168.28;5063103;28;20452;-48
2021/11/24 04:23:01;;;;;;;0.20;0.10;;;;;;;4.05;100.00;101161.16;5063503;28;20447;-48
2021/11/24 04:25:27;;;;;;;0.20;0.10;;;;;;;4.10;100.00;101159.44;5058035;28;21002;-49
2021/11/24 04:27:56;;;;;;;0.23;0.10;;;;;;;4.04;100.00;101151.50;5057565;28;20459;-48
2021/11/24 04:30:23;;;;;;;0.20;0.10;;;;;;;3.85;100.00;101153.03;5063385;28;20478;-48
2021/11/24 04:32:51;;;;;;;0.30;0.30;;;;;;;3.95;100.00;101155.75;5063495;28;20455;-49
2021/11/24 04:35:18;;;;;;;0.30;0.20;;;;;;;4.06;100.00;101149.75;5056639;28;20451;-48
2021/11/24 04:37:46;;;;;;;0.30;0.20;;;;;;;4.08;100.00;101155.03;5056909;28;20479;-49
2021/11/24 04:40:13;;;;;;;0.20;0.10;;;;;;;4.08;100.00;101150.66;5062526;28;20451;-49
2021/11/24 04:42:41;;;;;;;0.20;0.20;;;;;;;4.06;100.00;101149.75;5061911;28;20455;-48
2021/11/24 04:45:08;;;;;;;0.20;0.20;;;;;;;4.12;100.00;101148.97;5055308;28;20487;-48
2021/11/24 04:47:35;;;;;;;0.20;0.10;;;;;;;4.17;100.00;101149.91;5043348;28;20819;-47
2021/11/24 04:50:02;;;;;;;0.30;0.20;;;;;;;4.15;100.00;101147.25;5047783;28;21075;-48
2021/11/24 04:52:29;;;;;;;0.20;0.10;;;;;;;4.17;100.00;101152.53;5049674;28;20440;-48
2021/11/24 04:54:56;;;;;;;0.20;0.20;;;;;;;4.14;100.00;101147.25;5044496;28;20442;-47
2021/11/24 04:57:22;;;;;;;0.30;0.10;;;;;;;4.24;100.00;101146.44;5040109;28;20470;-48
2021/11/24 04:59:49;;;;;;;0.20;0.20;;;;;;;4.16;100.00;101149.00;5052954;28;20888;-48
2021/11/24 05:02:15;;;;;;;0.20;0.10;;;;;;;4.20;100.00;101143.78;5042605;28;20455;-48
2021/11/24 05:04:44;;;;;;;0.20;0.20;;;;;;;4.25;100.00;101142.06;5043327;28;20494;-48
2021/11/24 05:07:10;;;;;;;0.20;0.17;;;;;;;4.30;100.00;101135.13;5046733;28;20976;-47
2021/11/24 05:09:57;;;;;;;0.20;0.20;;;;;;;4.27;100.00;101130.72;5046658;28;20439;-48
2021/11/24 05:12:24;;;;;;;0.20;0.20;;;;;;;4.25;100.00;101134.19;5027305;28;20458;-48
2021/11/24 05:14:52;;;;;;;0.20;0.10;;;;;;;4.26;100.00;101139.47;5040042;28;20917;-48
2021/11/24 05:17:21;;;;;;;0.20;0.10;;;;;;;4.31;100.00;101137.78;5045958;28;20471;-48
2021/11/24 05:19:48;;;;;;;0.20;0.10;;;;;;;4.22;100.00;101131.53;5047940;28;20897;-48
2021/11/24 05:22:16;;;;;;;0.70;0.67;;;;;;;4.27;100.00;101132.47;5045365;28;20448;-48
2021/11/24 05:24:48;;;;;;;0.57;0.57;;;;;;;4.21;100.00;101125.38;5046438;28;20486;-49
2021/11/24 05:27:15;;;;;;;0.20;0.20;;;;;;;4.30;100.00;101130.75;5042107;28;20470;-48
2021/11/24 05:29:41;;;;;;;0.20;0.10;;;;;;;4.15;100.00;101138.47;5039774;28;20501;-48
2021/11/24 05:32:08;;;;;;;0.20;0.10;;;;;;;4.11;100.00;101128.75;5048999;28;20494;-47
2021/11/24 05:34:35;;;;;;;0.30;0.20;;;;;;;4.22;100.00;101129.78;5037021;28;20980;-47
2021/11/24 05:37:03;;;;;;;0.50;0.50;;;;;;;4.34;100.00;101122.00;5042015;28;20478;-49
2021/11/24 05:39:29;;;;;;;0.20;0.20;;;;;;;4.32;100.00;101130.75;5039427;28;20490;-48
2021/11/24 05:41:56;;;;;;;0.40;0.40;;;;;;;4.28;100.00;101123.72;5043154;28;20448;-48
2021/11/24 05:44:25;;;;;;;0.30;0.20;;;;;;;4.35;100.00;101122.88;5043166;28;20484;-47
2021/11/24 05:46:57;;;;;;;1.60;1.60;;;;;;;4.29;100.00;101125.47;5022735;28;20533;-48
2021/11/24 05:49:25;;;;;;;0.20;0.10;;;;;;;4.30;100.00;101125.47;5046301;28;20517;-48
2021/11/24 05:51:53;;;;;;;0.40;0.40;;;;;;;4.29;100.00;101122.84;5043722;28;21009;-47
2021/11/24 05:54:20;;;;;;;0.20;0.20;;;;;;;4.30;100.00;101120.22;5052708;28;20435;-47
2021/11/24 05:56:47;;;;;;;0.30;0.30;;;;;;;4.29;100.00;101123.72;5040253;28;20506;-48
2021/11/24 05:59:16;;;;;;;1.30;1.30;;;;;;;4.31;100.00;101127.25;5051511;28;20446;-48
2021/11/24 06:01:43;;;;;;;0.20;0.10;;;;;;;4.33;100.00;101122.00;5042203;28;20501;-47
2021/11/24 06:04:10;;;;;;;0.20;0.20;;;;;;;4.40;100.00;101121.22;5045555;28;20517;-48
2021/11/24 06:06:37;;;;;;;0.83;0.83;;;;;;;4.37;100.00;101123.78;5045607;28;20466;-48
2021/11/24 06:09:06;;;;;;;0.20;0.10;;;;;;;4.41;100.00;101115.94;5039616;28;20516;-49
2021/11/24 06:11:33;;;;;;;0.30;0.30;;;;;;;4.35;100.00;101112.34;5039005;28;20502;-48
2021/11/24 06:13:59;;;;;;;0.20;0.10;;;;;;;4.40;100.00;101108.94;5044608;28;20451;-48
2021/11/24 06:16:26;;;;;;;0.20;0.10;;;;;;;4.38;100.00;101112.38;5045587;28;20893;-48
2021/11/24 06:18:53;;;;;;;0.20;0.10;;;;;;;4.41;100.00;101108.06;5040082;28;20477;-48
2021/11/24 06:21:22;;;;;;;0.20;0.10;;;;;;;4.45;100.00;101107.22;5038831;28;20825;-48
2021/11/24 06:23:50;;;;;;;0.20;0.20;;;;;;;4.46;100.00;101105.44;5043836;28;20534;-47
2021/11/24 06:26:19;;;;;;;0.20;0.20;;;;;;;4.46;100.00;101098.44;5045534;28;20522;-48
2021/11/24 06:28:47;;;;;;;0.20;0.10;;;;;;;4.50;100.00;101101.97;5023789;28;20446;-48
2021/11/24 06:31:14;;;;;;;0.20;0.10;;;;;;;4.43;100.00;101103.69;5038492;28;20448;-48
2021/11/24 06:33:40;;;;;;;6.70;1.70;;;;;;;4.44;100.00;101105.44;5042673;28;20548;-48
2021/11/24 06:36:07;;;;;;;0.30;0.20;;;;;;;4.42;100.00;101095.78;5045683;28;20487;-48
2021/11/24 06:38:34;;;;;;;0.20;0.10;;;;;;;4.56;100.00;101088.88;5041916;28;20826;-48
2021/11/24 06:41:01;;;;;;;0.30;0.30;;;;;;;4.54;100.00;101093.25;5038633;28;20447;-47
2021/11/24 06:43:27;;;;;;;0.20;0.10;;;;;;;4.59;100.00;101098.56;5042034;28;20448;-48
2021/11/24 06:45:54;;;;;;;0.83;0.83;;;;;;;4.57;100.00;101097.66;5044955;28;20909;-48
2021/11/24 06:48:21;;;;;;;0.30;0.20;;;;;;;4.63;100.00;101090.69;5042455;28;20454;-48
2021/11/24 06:50:47;;;;;;;0.73;0.73;;;;;;;4.68;100.00;101090.75;5038555;28;20451;-48
2021/11/24 06:53:14;;;;;;;1.70;1.27;;;;;;;4.55;100.00;101097.66;5050566;28;20442;-47
2021/11/24 06:55:40;;;;;;;0.20;0.10;;;;;;;4.85;100.00;101086.47;5048686;28;20537;-48
2021/11/24 06:58:07;;;;;;;0.20;0.10;;;;;;;4.77;100.00;101098.69;5042552;28;20504;-48
2021/11/24 07:00:34;;;;;;;0.20;0.20;;;;;;;4.65;100.00;101088.06;5053907;28;20462;-48
2021/11/24 07:03:00;;;;;;;0.47;0.47;;;;;;;4.59;100.00;101088.03;5046009;28;20961;-48
2021/11/24 07:05:27;;;;;;;0.20;0.10;;;;;;;4.59;100.00;101088.03;5041879;28;20482;-48
2021/11/24 07:07:54;;;;;;;0.20;0.10;;;;;;;4.55;100.00;101086.25;5045279;28;20451;-48
2021/11/24 07:10:21;;;;;;;0.30;0.30;;;;;;;4.78;100.00;101076.75;5048747;28;20490;-48
2021/11/24 07:12:47;;;;;;;0.20;0.10;;;;;;;4.85;100.00;101085.59;5045595;28;20939;-47
2021/11/24 07:15:14;;;;;;;0.20;0.10;;;;;;;4.77;100.00;101090.78;5041691;28;20443;-48
2021/11/24 07:17:41;;;;;;;0.40;0.40;;;;;;;4.84;100.00;101095.25;5044807;28;20521;-49
2021/11/24 07:20:07;;;;;;;0.20;0.20;;;;;;;4.85;100.00;101097.03;5030927;28;20447;-48
2021/11/24 07:22:34;;;;;;;0.40;0.40;;;;;;;4.91;100.00;101098.81;5046108;28;20451;-48
2021/11/24 07:25:03;;;;;;;0.20;0.10;;;;;;;4.86;100.00;101096.16;5041654;28;20494;-48
2021/11/24 07:27:29;;;;;;;0.77;0.40;;;;;;;4.85;100.00;101094.38;5043611;28;20467;-47
2021/11/24 07:29:56;;;;;;;0.20;0.10;;;;;;;4.79;100.00;101089.06;5048563;28;20452;-48
2021/11/24 07:32:23;;;;;;;0.20;0.20;;;;;;;4.83;100.00;101090.88;5046894;28;20455;-47
2021/11/24 07:34:49;;;;;;;0.20;0.10;;;;;;;4.79;100.00;101090.81;5041660;28;20807;-48
2021/11/24 07:37:16;;;;;;;0.30;0.20;;;;;;;4.84;100.00;101081.22;5043262;28;20491;-47
2021/11/24 07:39:43;;;;;;;0.73;0.70;;;;;;;4.87;100.00;101086.50;5048335;28;20452;-48
2021/11/24 07:42:10;;;;;;;0.20;0.10;;;;;;;4.89;100.00;101085.63;5046788;28;20450;-48
2021/11/24 07:44:37;;;;;;;0.30;0.20;;;;;;;4.89;100.00;101077.72;5041523;28;20940;-48
2021/11/24 07:47:04;;;;;;;0.20;0.10;;;;;;;4.98;100.00;101075.16;5043330;28;20475;-48
2021/11/24 07:49:31;;;;;;;0.30;0.20;;;;;;;4.99;100.00;101073.41;5047913;28;20487;-47
2021/11/24 07:51:58;;;;;;;1.13;1.13;;;;;;;4.99;100.00;101081.31;5047370;28;20479;-48
2021/11/24 07:54:24;;;;;;;0.20;0.20;;;;;;;5.01;100.00;101071.66;5054350;28;20456;-47
2021/11/24 07:56:51;;;;;;;2.30;2.20;;;;;;;4.94;100.00;101073.38;5042164;28;20484;-48
2021/11/24 07:59:17;;;;;;;0.20;0.20;;;;;;;5.09;100.00;101077.88;5053288;28;20451;-47
2021/11/24 08:01:44;;;;;;;3.07;1.50;;;;;;;5.06;100.00;101077.84;5044465;28;20505;-49
2021/11/24 08:04:11;;;;;;;0.30;0.20;;;;;;;5.09;100.00;101069.97;5048201;28;20478;-49
2021/11/24 08:06:38;;;;;;;0.30;0.20;;;;;;;5.12;100.00;101069.97;5034588;28;20523;-49
2021/11/24 08:09:05;;;;;;;0.20;0.20;;;;;;;5.12;100.00;101072.63;5047396;28;20451;-48
2021/11/24 08:11:31;;;;;;;0.20;0.10;;;;;;;5.16;100.00;101070.88;5046846;28;20508;-48
2021/11/24 08:13:58;;;;;;;0.73;0.70;;;;;;;5.22;100.00;101066.53;5040653;28;20462;-47
2021/11/24 08:16:25;;;;;;;0.30;0.20;;;;;;;5.23;100.00;101064.78;5024068;28;20492;-48
2021/11/24 08:18:51;;;;;;;1.33;1.33;;;;;;;5.22;100.00;101060.38;5047473;28;20454;-48
2021/11/24 08:21:18;;;;;;;0.20;0.10;;;;;;;5.24;100.00;101059.53;5046655;28;20446;-47
2021/11/24 08:23:45;;;;;;;0.20;0.10;;;;;;;5.29;100.00;101047.22;5040316;28;20487;-48
2021/11/24 08:26:13;;;;;;;0.20;0.10;;;;;;;5.29;100.00;101049.00;5040758;28;20918;-49
2021/11/24 08:28:40;;;;;;;0.20;0.20;;;;;;;5.41;100.00;101051.69;5047472;28;20451;-48
2021/11/24 08:31:06;;;;;;;0.20;0.10;;;;;;;5.48;100.00;101047.31;5041793;28;20452;-49
2021/11/24 08:33:33;;;;;;;2.03;2.03;;;;;;;5.49;100.00;101049.09;5029314;28;20527;-48
2021/11/24 08:35:59;;;;;;;15.17;4.87;;;;;;;5.48;100.00;101042.94;5046903;28;20544;-48
2021/11/24 08:38:26;;;;;;;2.20;2.10;;;;;;;5.62;100.00;101045.66;5046889;28;20871;-49
2021/11/24 08:40:53;;;;;;;0.30;0.20;;;;;;;5.63;100.00;101044.75;5047257;28;20866;-48
2021/11/24 08:43:20;;;;;;;0.33;0.33;;;;;;;5.61;100.00;101042.09;5047094;28;20502;-49
2021/11/24 08:45:46;;;;;;;0.20;0.10;;;;;;;5.60;100.00;101042.09;5046717;28;20547;-48
2021/11/24 08:48:13;;;;;;;0.60;0.57;;;;;;;5.68;100.00;101037.75;5040849;28;20823;-48
2021/11/24 08:50:40;;;;;;;0.30;0.20;;;;;;;5.72;100.00;101039.50;5040011;28;20870;-47
2021/11/24 08:53:07;;;;;;;0.30;0.30;;;;;;;5.72;100.00;101035.97;5053218;28;20471;-47
2021/11/24 08:55:33;;;;;;;0.20;0.10;;;;;;;5.86;100.00;101035.16;5051472;28;20532;-47
2021/11/24 08:58:00;;;;;;;0.20;0.20;;;;;;;5.80;100.00;101035.13;5042023;28;20473;-48
2021/11/24 09:00:27;;;;;;;0.30;0.20;;;;;;;5.73;100.00;101035.97;5052539;28;21024;-48
2021/11/24 09:02:57;;;;;;;0.30;0.20;;;;;;;5.84;100.00;101033.38;5031932;28;20462;-48
2021/11/24 09:05:24;;;;;;;0.20;0.20;;;;;;;5.90;100.00;101034.34;5039365;28;20491;-47
2021/11/24 09:07:52;;;;;;;0.20;0.10;;;;;;;5.96;100.00;101029.94;5043895;28;20448;-47
2021/11/24 09:10:20;;;;;;;0.23;0.13;;;;;;;5.83;100.00;101032.50;5046131;28;20543;-48
2021/11/24 09:12:46;;;;;;;0.23;0.17;;;;;;;5.84;100.00;101023.72;5043285;28;20447;-47
2021/11/24 09:15:13;;;;;;;0.30;0.20;;;;;;;5.87;100.00;101015.78;5039525;28;20924;-47
2021/11/24 09:18:00;;;;;;;0.20;0.20;;;;;;;5.84;100.00;101013.16;5040096;28;20503;-47
2021/11/24 09:20:27;;;;;;;0.20;0.20;;;;;;;5.94;100.00;101016.75;5045427;28;20448;-47
2021/11/24 09:22:54;;;;;;;0.20;0.20;;;;;;;5.88;100.00;101011.41;5046245;28;20451;-48
2021/11/24 09:25:25;;;;;;;0.20;0.20;;;;;;;5.91;100.00;101004.44;5039684;28;20913;-48
2021/11/24 09:30:26;;;;;;;0.20;0.10;;;;;;;6.16;100.00;101002.69;5044813;28;20443;-48
2021/11/24 09:32:53;;;;;;;0.20;0.10;;;;;;;6.05;100.00;100996.53;5046723;28;20455;-47
2021/11/24 09:35:20;;;;;;;0.20;0.20;;;;;;;5.96;100.00;100993.88;5041617;28;20454;-47
2021/11/24 09:37:47;;;;;;;0.20;0.10;;;;;;;6.06;100.00;100992.13;5039322;28;20459;-46
2021/11/24 09:40:14;;;;;;;0.30;0.27;;;;;;;6.03;100.00;100978.91;5043722;28;20937;-47
2021/11/24 09:42:44;;;;;;;0.20;0.10;;;;;;;6.06;100.00;100982.47;5046064;28;20467;-47
2021/11/24 09:45:14;;;;;;;1.60;1.50;;;;;;;6.15;100.00;100974.53;5042334;28;20525;-47
2021/11/24 09:47:45;;;;;;;0.23;0.10;;;;;;;6.12;100.00;100974.53;5039256;28;20467;-47
2021/11/24 09:50:13;;;;;;;0.20;0.20;;;;;;;6.14;100.00;100963.97;5041743;28;20509;-47
2021/11/24 09:52:43;;;;;;;0.20;0.17;;;;;;;6.30;100.00;100967.50;5050683;28;20443;-48
2021/11/24 09:55:10;;;;;;;0.20;0.20;;;;;;;6.19;100.00;100967.50;5052613;28;20869;-48
2021/11/24 09:57:37;;;;;;;0.30;0.30;;;;;;;6.36;100.00;100960.47;5039074;28;20470;-47
2021/11/24 10:00:05;;;;;;;0.20;0.20;;;;;;;6.40;100.00;100962.22;5051794;28;20458;-48
2021/11/24 10:02:36;;;;;;;0.20;0.20;;;;;;;6.34;100.00;100958.72;5041391;28;20508;-47
2021/11/24 10:05:03;;;;;;;0.20;0.20;;;;;;;6.31;100.00;100956.97;5039029;28;20474;-47
2021/11/24 10:07:29;;;;;;;0.20;0.20;;;;;;;6.25;100.00;100951.66;5026018;28;20529;-47
2021/11/24 10:10:04;;;;;;;0.20;0.10;;;;;;;6.29;100.00;100948.13;5038752;28;20447;-48
2021/11/24 10:12:30;;;;;;;0.20;0.20;;;;;;;6.30;100.00;100944.59;5045498;28;20506;-47
2021/11/24 10:14:57;;;;;;;0.20;0.10;;;;;;;6.43;100.00;100937.56;5045851;28;20446;-47
2021/11/24 10:17:25;;;;;;;0.20;0.20;;;;;;;6.27;100.00;100931.41;5039930;28;20536;-48
2021/11/24 10:19:59;;;;;;;0.20;0.10;;;;;;;6.45;100.00;100938.47;5021412;28;20506;-47
2021/11/24 10:22:26;;;;;;;0.33;0.33;;;;;;;6.47;100.00;100927.00;5043568;28;20953;-47
2021/11/24 10:25:11;;;;;;;0.20;0.20;;;;;;;6.49;100.00;100927.88;5045297;28;20836;-48
2021/11/24 10:27:40;;;;;;;0.30;0.30;;;;;;;6.71;100.00;100923.41;5044069;28;20520;-48
2021/11/24 10:30:29;;;;;;;0.30;0.20;;;;;;;6.69;100.00;100914.63;5045426;28;20456;-48
2021/11/24 10:33:16;;;;;;;0.20;0.17;;;;;;;6.65;100.00;100917.28;5044120;28;20485;-47
2021/11/24 10:35:42;;;;;;;0.30;0.20;;;;;;;6.68;100.00;100919.91;5047436;28;20548;-47
2021/11/24 10:38:14;;;;;;;0.20;0.20;;;;;;;6.51;100.00;100902.34;5067938;22;20927;-51
2021/11/24 10:40:43;;;;;;;0.23;0.17;;;;;;;6.75;100.00;100913.75;5043558;28;20447;-50
2021/11/24 10:43:15;;;;;;;0.20;0.10;;;;;;;6.69;99.51;100905.81;5049258;28;20451;-50
2021/11/24 10:45:55;;;;;;;0.30;0.20;;;;;;;6.67;99.26;100907.59;5048820;28;20615;-50
2021/11/24 10:48:29;;;;;;;0.30;0.20;;;;;;;6.61;96.01;100902.34;5044939;28;20562;-50
2021/11/24 10:51:00;;;;;;;0.30;0.20;;;;;;;6.61;97.81;100891.78;5042426;28;20503;-50
2021/11/24 10:53:28;;;;;;;1.13;1.13;;;;;;;6.59;95.23;100885.63;5066981;28;20442;-50
2021/11/24 10:56:05;;;;;;;0.20;0.13;;;;;;;6.50;95.95;100875.94;5052559;28;20793;-50
2021/11/24 10:58:37;;;;;;;0.20;0.20;;;;;;;6.40;97.99;100868.91;5049291;28;20446;-50
2021/11/24 11:01:03;;;;;;;0.20;0.20;;;;;;;6.38;97.24;100868.03;5043034;28;20492;-50
2021/11/24 11:03:41;;;;;;;0.20;0.20;;;;;;;6.43;97.63;100859.22;5054244;28;20470;-50
2021/11/24 11:06:09;;;;;;;0.20;0.20;;;;;;;6.44;96.72;100849.53;5044467;28;20482;-50
2021/11/24 11:08:36;;;;;;;0.20;0.10;;;;;;;6.53;96.20;100855.69;5042009;28;20443;-50
2021/11/24 11:11:32;;;;;;;0.20;0.20;;;;;;;6.49;96.98;100839.84;5044358;28;20451;-51
2021/11/24 11:14:18;;;;;;;0.20;0.20;;;;;;;6.60;97.99;100838.06;5042045;28;20455;-50
2021/11/24 11:16:54;;;;;;;0.20;0.17;;;;;;;6.63;97.31;100834.53;5041725;28;20468;-50
2021/11/24 11:19:49;;;;;;;0.20;0.20;;;;;;;6.55;96.61;100829.25;5043651;28;20451;-50
2021/11/24 11:22:21;;;;;;;0.20;0.20;;;;;;;6.49;96.56;100826.66;5042836;28;20454;-50
2021/11/24 11:24:47;;;;;;;0.20;0.10;;;;;;;6.56;96.24;100819.56;5041700;28;20499;-51
2021/11/24 11:27:14;;;;;;;0.20;0.10;;;;;;;6.56;95.58;100820.44;5028506;28;20494;-51
2021/11/24 11:29:42;;;;;;;0.30;0.20;;;;;;;6.51;97.20;100812.56;5048641;28;20447;-50
2021/11/24 11:32:10;;;;;;;0.20;0.13;;;;;;;6.69;96.79;100814.22;5048870;28;20474;-50